createdAt,value
2022-07-31T00:02:46.883Z,17.00
2022-07-31T00:07:48.815Z,16.90
2022-07-31T00:12:51.397Z,16.80
2022-07-31T00:17:53.342Z,16.70
2022-07-31T00:22:55.353Z,16.70
2022-07-31T00:27:57.206Z,16.60
2022-07-31T00:32:59.194Z,16.50
2022-07-31T00:38:25.644Z,16.20
2022-07-31T00:43:23.433Z,16.20
2022-07-31T00:48:29.745Z,16.10
2022-07-31T00:53:31.572Z,16.10
2022-07-31T00:58:33.436Z,16.10
2022-07-31T01:03:35.725Z,15.90
2022-07-31T01:08:37.609Z,16.00
2022-07-31T01:13:48.586Z,15.80
2022-07-31T01:18:53.128Z,15.80
2022-07-31T01:24:26.723Z,15.90
2022-07-31T01:29:53.589Z,16.00
2022-07-31T01:35:07.888Z,16.00
2022-07-31T01:40:25.013Z,15.90
2022-07-31T01:45:29.168Z,15.90
2022-07-31T01:50:42.764Z,16.00
2022-07-31T01:56:01.955Z,15.80
2022-07-31T02:01:11.637Z,15.70
2022-07-31T02:06:18.792Z,15.60
2022-07-31T02:11:21.435Z,15.40
2022-07-31T02:16:24.829Z,15.40
2022-07-31T02:21:34.378Z,15.40
2022-07-31T02:26:38.246Z,15.40
2022-07-31T02:31:44.366Z,15.30
2022-07-31T02:36:47.308Z,15.30
2022-07-31T02:41:49.665Z,15.20
2022-07-31T02:46:52.141Z,15.10
2022-07-31T02:51:54.471Z,15.10
2022-07-31T02:56:58.065Z,15.00
2022-07-31T03:01:59.946Z,15.00
2022-07-31T03:07:04.602Z,14.90
2022-07-31T03:12:07.347Z,14.80
2022-07-31T03:17:09.751Z,14.80
2022-07-31T03:22:15.342Z,14.80
2022-07-31T03:27:17.576Z,14.70
2022-07-31T03:32:19.578Z,14.80
2022-07-31T03:37:21.625Z,14.70
2022-07-31T03:42:24.352Z,14.60
2022-07-31T03:47:26.370Z,14.50
2022-07-31T03:52:31.173Z,14.50
2022-07-31T03:57:34.095Z,14.50
2022-07-31T04:02:36.586Z,14.40
2022-07-31T04:07:44.426Z,14.30
2022-07-31T04:12:46.322Z,14.30
2022-07-31T04:17:48.997Z,14.10
2022-07-31T04:22:55.934Z,14.10
2022-07-31T04:28:18.048Z,14.10
2022-07-31T04:33:20.334Z,14.20
2022-07-31T04:38:22.394Z,14.20
2022-07-31T04:43:24.308Z,14.30
2022-07-31T04:48:26.526Z,14.30
2022-07-31T04:53:28.441Z,14.40
2022-07-31T04:58:30.521Z,14.40
2022-07-31T05:03:32.349Z,14.50
2022-07-31T05:08:34.270Z,14.60
2022-07-31T05:13:36.242Z,14.70
2022-07-31T05:18:38.187Z,14.80
2022-07-31T05:24:00.229Z,14.90
2022-07-31T05:29:23.590Z,15.40
2022-07-31T05:34:25.476Z,17.80
2022-07-31T05:39:29.234Z,18.50
2022-07-31T05:44:49.833Z,18.50
2022-07-31T05:49:51.906Z,18.50
2022-07-31T05:54:56.790Z,19.10
2022-07-31T06:00:17.570Z,20.00
2022-07-31T06:05:20.134Z,20.80
2022-07-31T06:10:22.611Z,21.30
2022-07-31T06:15:24.918Z,21.50
2022-07-31T06:20:27.357Z,21.50
2022-07-31T06:25:31.903Z,21.00
2022-07-31T06:30:41.197Z,20.90
2022-07-31T06:35:43.184Z,20.90
2022-07-31T06:41:03.629Z,21.00
2022-07-31T06:46:18.381Z,21.10
2022-07-31T06:51:39.045Z,20.90
2022-07-31T06:56:41.042Z,21.10
2022-07-31T07:01:43.545Z,21.30
2022-07-31T07:06:47.322Z,21.40
2022-07-31T07:11:54.472Z,21.40
2022-07-31T07:16:57.085Z,21.90
2022-07-31T07:21:58.952Z,22.60
2022-07-31T07:27:00.865Z,22.90
2022-07-31T07:32:03.209Z,23.20
2022-07-31T07:37:06.467Z,23.40
2022-07-31T07:42:09.106Z,23.50
2022-07-31T07:47:10.958Z,23.60
2022-07-31T07:52:13.140Z,23.70
2022-07-31T07:57:16.365Z,23.70
2022-07-31T08:02:36.786Z,23.50
2022-07-31T08:07:42.671Z,23.50
2022-07-31T08:13:03.243Z,23.40
2022-07-31T08:18:23.614Z,23.20
2022-07-31T08:23:30.558Z,23.20
2022-07-31T08:28:32.581Z,22.90
2022-07-31T08:33:34.793Z,22.70
2022-07-31T08:38:37.011Z,22.70
2022-07-31T08:44:04.492Z,22.70
2022-07-31T08:49:09.854Z,22.70
2022-07-31T08:54:18.957Z,22.60
2022-07-31T08:59:22.162Z,22.60
2022-07-31T09:04:24.785Z,22.70
2022-07-31T09:09:41.291Z,22.90
2022-07-31T09:14:49.726Z,23.00
2022-07-31T09:19:54.990Z,23.00
2022-07-31T09:25:15.930Z,22.80
2022-07-31T09:30:18.335Z,23.00
2022-07-31T09:35:39.791Z,22.80
2022-07-31T09:40:55.153Z,22.90
2022-07-31T09:46:21.266Z,23.00
2022-07-31T09:51:23.138Z,23.50
2022-07-31T09:56:35.132Z,24.00
2022-07-31T10:01:38.957Z,24.40
2022-07-31T10:06:42.352Z,24.70
2022-07-31T10:11:46.560Z,25.00
2022-07-31T10:16:59.025Z,25.50
2022-07-31T10:22:21.098Z,25.70
2022-07-31T10:27:24.746Z,26.00
2022-07-31T10:32:34.085Z,25.80
2022-07-31T10:38:17.147Z,25.90
2022-07-31T10:43:39.235Z,26.00
2022-07-31T10:48:57.760Z,26.10
2022-07-31T10:54:19.345Z,25.50
2022-07-31T10:59:46.289Z,25.30
2022-07-31T11:05:28.200Z,25.60
2022-07-31T11:10:51.364Z,25.90
2022-07-31T11:16:07.698Z,26.10
2022-07-31T11:21:48.018Z,25.90
2022-07-31T11:26:59.339Z,25.90
2022-07-31T11:32:22.911Z,26.00
2022-07-31T11:37:39.468Z,26.00
2022-07-31T11:43:10.689Z,25.90
2022-07-31T11:48:21.115Z,25.60
2022-07-31T11:53:23.201Z,25.30
2022-07-31T11:58:26.877Z,25.40
2022-07-31T12:03:37.897Z,25.40
2022-07-31T12:08:40.750Z,25.50
2022-07-31T12:13:46.473Z,25.50
2022-07-31T12:18:59.003Z,25.40
2022-07-31T12:24:03.169Z,25.20
2022-07-31T12:29:10.418Z,25.40
2022-07-31T12:34:12.700Z,25.80
2022-07-31T12:39:14.525Z,25.70
2022-07-31T12:44:21.475Z,25.60
2022-07-31T12:49:24.992Z,25.80
2022-07-31T12:54:26.846Z,26.30
2022-07-31T12:59:28.714Z,26.70
2022-07-31T13:04:30.577Z,26.90
2022-07-31T13:09:32.390Z,27.00
2022-07-31T13:14:34.543Z,26.90
2022-07-31T13:19:36.398Z,26.60
2022-07-31T13:24:38.473Z,26.80
2022-07-31T13:29:40.326Z,26.80
2022-07-31T13:34:42.237Z,26.70
2022-07-31T13:39:44.139Z,26.80
2022-07-31T13:44:46.051Z,26.90
2022-07-31T13:49:47.925Z,26.80
2022-07-31T13:54:49.757Z,26.60
2022-07-31T13:59:51.602Z,26.40
2022-07-31T14:04:53.479Z,26.30
2022-07-31T14:09:56.905Z,26.30
2022-07-31T14:14:58.811Z,26.30
2022-07-31T14:20:00.732Z,26.30
2022-07-31T14:25:02.684Z,26.30
2022-07-31T14:30:09.329Z,26.20
2022-07-31T14:35:11.443Z,26.20
2022-07-31T14:40:13.997Z,26.00
2022-07-31T14:45:15.837Z,25.80
2022-07-31T14:50:19.772Z,25.60
2022-07-31T14:55:24.515Z,25.50
2022-07-31T15:00:26.525Z,25.40
2022-07-31T15:06:39.385Z,25.40
2022-07-31T15:10:50.250Z,25.50
2022-07-31T15:15:52.773Z,25.50
2022-07-31T15:20:54.627Z,25.60
2022-07-31T15:25:56.850Z,25.50
2022-07-31T15:31:01.344Z,25.40
2022-07-31T15:36:03.420Z,25.20
2022-07-31T15:41:05.526Z,25.00
2022-07-31T15:46:09.861Z,24.80
2022-07-31T15:51:11.776Z,24.60
2022-07-31T15:56:13.666Z,24.60
2022-07-31T16:01:15.587Z,24.60
2022-07-31T16:06:17.523Z,24.70
2022-07-31T16:11:20.417Z,24.60
2022-07-31T16:16:22.357Z,24.60
2022-07-31T16:21:24.235Z,24.60
2022-07-31T16:26:26.087Z,24.40
2022-07-31T16:31:29.955Z,24.30
2022-07-31T16:36:32.297Z,24.20
2022-07-31T16:41:34.139Z,24.10
2022-07-31T16:46:36.004Z,24.00
2022-07-31T16:51:38.073Z,24.00
2022-07-31T16:56:40.016Z,24.00
2022-07-31T17:01:59.308Z,24.00
2022-07-31T17:07:02.871Z,24.00
2022-07-31T17:12:05.637Z,24.00
2022-07-31T17:17:08.004Z,23.90
2022-07-31T17:22:11.389Z,23.90
2022-07-31T17:27:13.581Z,23.90
2022-07-31T17:32:17.111Z,23.80
2022-07-31T17:37:19.314Z,23.70
2022-07-31T17:42:24.902Z,23.50
2022-07-31T17:47:27.074Z,23.40
2022-07-31T17:52:28.884Z,23.30
2022-07-31T17:57:32.599Z,23.20
2022-07-31T18:02:35.015Z,23.00
2022-07-31T18:07:38.889Z,22.90
2022-07-31T18:12:58.147Z,22.80
2022-07-31T18:18:00.254Z,22.70
2022-07-31T18:23:02.227Z,22.50
2022-07-31T18:28:04.161Z,22.40
2022-07-31T18:33:06.129Z,22.40
2022-07-31T18:38:07.963Z,22.30
2022-07-31T18:43:11.004Z,22.30
2022-07-31T18:48:13.038Z,22.20
2022-07-31T18:53:16.173Z,22.10
2022-07-31T18:58:18.097Z,22.00
2022-07-31T19:03:19.932Z,22.00
2022-07-31T19:08:22.124Z,21.90
2022-07-31T19:13:23.977Z,21.80
2022-07-31T19:18:28.730Z,21.70
2022-07-31T19:23:30.980Z,21.60
2022-07-31T19:28:33.434Z,21.50
2022-07-31T19:33:35.679Z,21.50
2022-07-31T19:38:38.005Z,21.40
2022-07-31T19:43:39.876Z,21.30
2022-07-31T19:48:46.084Z,21.30
2022-07-31T19:53:48.067Z,21.30
2022-07-31T19:58:50.800Z,21.20
2022-07-31T20:03:57.284Z,21.20
2022-07-31T20:08:59.426Z,21.10
2022-07-31T20:14:01.347Z,21.10
2022-07-31T20:19:03.206Z,21.00
2022-07-31T20:24:05.610Z,21.00
2022-07-31T20:29:07.539Z,20.90
2022-07-31T20:34:09.460Z,20.90
2022-07-31T20:39:11.294Z,20.80
2022-07-31T20:44:13.203Z,20.80
2022-07-31T20:49:19.281Z,20.80
2022-07-31T20:54:34.357Z,20.70
2022-07-31T20:59:36.826Z,20.70
2022-07-31T21:04:38.659Z,20.70
2022-07-31T21:09:41.567Z,20.60
2022-07-31T21:14:43.490Z,20.60
2022-07-31T21:19:45.394Z,20.60
2022-07-31T21:24:47.514Z,20.60
2022-07-31T21:29:55.074Z,20.60
2022-07-31T21:34:58.740Z,20.50
2022-07-31T21:40:00.650Z,20.50
2022-07-31T21:45:03.418Z,20.50
2022-07-31T21:50:09.388Z,20.50
2022-07-31T21:55:11.278Z,20.40
2022-07-31T22:00:14.160Z,20.40
2022-07-31T22:05:34.541Z,20.40
2022-07-31T22:10:36.374Z,20.40
2022-07-31T22:15:55.586Z,20.30
2022-07-31T22:21:04.581Z,20.30
2022-07-31T22:26:06.766Z,20.20
2022-07-31T22:31:10.338Z,20.20
2022-07-31T22:36:13.196Z,20.20
2022-07-31T22:41:15.258Z,20.10
2022-07-31T22:46:17.336Z,20.10
2022-07-31T22:51:19.240Z,20.00
2022-07-31T22:56:21.155Z,20.00
2022-07-31T23:01:23.067Z,20.00
2022-07-31T23:06:31.666Z,20.00
2022-07-31T23:11:34.733Z,19.80
2022-07-31T23:16:36.986Z,19.80
2022-07-31T23:21:38.805Z,19.70
2022-07-31T23:26:40.697Z,19.60
2022-07-31T23:31:42.549Z,19.50
2022-07-31T23:36:44.737Z,19.30
2022-07-31T23:42:18.623Z,19.20
2022-07-31T23:47:20.514Z,19.20
2022-07-31T23:52:22.854Z,19.20
2022-07-31T23:57:24.674Z,19.20
